sensor_id;sensor_type;location;lat;lon;timestamp;pressure;altitude;pressure_sealevel;temperature;humidity
11710;BME280;5911;51.036;6.972;2023-07-08T00:01:19;100822.03;;;23.88;51.29
11710;BME280;5911;51.036;6.972;2023-07-08T00:03:48;100814.38;;;23.78;52.43
11710;BME280;5911;51.036;6.972;2023-07-08T00:06:18;100809.16;;;23.70;51.70
11710;BME280;5911;51.036;6.972;2023-07-08T00:08:48;100811.44;;;23.73;51.73
11710;BME280;5911;51.036;6.972;2023-07-08T00:11:16;100817.25;;;23.64;51.19
11710;BME280;5911;51.036;6.972;2023-07-08T00:13:44;100811.03;;;23.63;51.59
11710;BME280;5911;51.036;6.972;2023-07-08T00:16:13;100810.63;;;23.60;52.35
11710;BME280;5911;51.036;6.972;2023-07-08T00:18:42;100808.97;;;23.52;52.66
11710;BME280;5911;51.036;6.972;2023-07-08T00:21:10;100812.63;;;23.44;52.11
11710;BME280;5911;51.036;6.972;2023-07-08T00:23:43;100803.94;;;23.42;52.76
11710;BME280;5911;51.036;6.972;2023-07-08T00:26:15;100798.53;;;23.42;53.63
11710;BME280;5911;51.036;6.972;2023-07-08T00:28:44;100802.06;;;23.36;52.93
11710;BME280;5911;51.036;6.972;2023-07-08T00:31:13;100797.28;;;23.32;53.16
11710;BME280;5911;51.036;6.972;2023-07-08T00:33:41;100799.34;;;23.30;53.78
11710;BME280;5911;51.036;6.972;2023-07-08T00:36:11;100803.47;;;23.26;53.96
11710;BME280;5911;51.036;6.972;2023-07-08T00:38:40;100800.59;;;23.21;53.91
11710;BME280;5911;51.036;6.972;2023-07-08T00:41:16;100798.28;;;23.18;54.13
11710;BME280;5911;51.036;6.972;2023-07-08T00:43:49;100794.97;;;23.15;54.44
11710;BME280;5911;51.036;6.972;2023-07-08T00:46:31;100799.47;;;23.08;53.50
11710;BME280;5911;51.036;6.972;2023-07-08T00:49:21;100793.69;;;23.05;53.98
11710;BME280;5911;51.036;6.972;2023-07-08T00:51:51;100790.97;;;22.98;55.28
11710;BME280;5911;51.036;6.972;2023-07-08T00:54:19;100797.19;;;22.99;54.58
11710;BME280;5911;51.036;6.972;2023-07-08T00:56:51;100785.34;;;22.93;55.02
11710;BME280;5911;51.036;6.972;2023-07-08T00:59:23;100788.03;;;22.93;55.09
11710;BME280;5911;51.036;6.972;2023-07-08T01:01:53;100793.22;;;22.95;55.66
11710;BME280;5911;51.036;6.972;2023-07-08T01:04:24;100799.25;;;22.90;55.57
11710;BME280;5911;51.036;6.972;2023-07-08T01:06:55;100793.00;;;22.83;55.44
11710;BME280;5911;51.036;6.972;2023-07-08T01:09:27;100779.31;;;22.78;55.57
11710;BME280;5911;51.036;6.972;2023-07-08T01:12:00;100795.88;;;22.82;55.55
11710;BME280;5911;51.036;6.972;2023-07-08T01:14:31;100791.72;;;22.79;55.83
11710;BME280;5911;51.036;6.972;2023-07-08T01:17:00;100792.75;;;22.78;55.47
11710;BME280;5911;51.036;6.972;2023-07-08T01:19:28;100786.34;;;22.79;54.76
11710;BME280;5911;51.036;6.972;2023-07-08T01:22:02;100784.28;;;22.81;54.94
11710;BME280;5911;51.036;6.972;2023-07-08T01:24:32;100783.66;;;22.79;54.97
11710;BME280;5911;51.036;6.972;2023-07-08T01:27:02;100782.78;;;22.72;55.55
11710;BME280;5911;51.036;6.972;2023-07-08T01:29:31;100785.94;;;22.82;55.36
11710;BME280;5911;51.036;6.972;2023-07-08T01:31:59;100786.34;;;22.79;55.77
11710;BME280;5911;51.036;6.972;2023-07-08T01:34:29;100775.97;;;22.76;56.54
11710;BME280;5911;51.036;6.972;2023-07-08T01:36:59;100784.28;;;22.81;55.90
11710;BME280;5911;51.036;6.972;2023-07-08T01:39:30;100785.13;;;22.82;57.00
11710;BME280;5911;51.036;6.972;2023-07-08T01:41:59;100782.63;;;22.80;57.27
11710;BME280;5911;51.036;6.972;2023-07-08T01:44:29;100783.00;;;22.77;57.71
11710;BME280;5911;51.036;6.972;2023-07-08T01:47:01;100765.38;;;22.68;57.68
11710;BME280;5911;51.036;6.972;2023-07-08T01:49:31;100788.41;;;22.77;59.43
11710;BME280;5911;51.036;6.972;2023-07-08T01:52:01;100786.72;;;22.76;59.60
11710;BME280;5911;51.036;6.972;2023-07-08T01:54:30;100788.59;;;22.75;60.01
11710;BME280;5911;51.036;6.972;2023-07-08T01:56:58;100787.53;;;22.70;59.67
11710;BME280;5911;51.036;6.972;2023-07-08T01:59:27;100778.81;;;22.68;59.66
11710;BME280;5911;51.036;6.972;2023-07-08T02:01:56;100767.66;;;22.71;60.96
11710;BME280;5911;51.036;6.972;2023-07-08T02:04:25;100764.75;;;22.66;60.78
11710;BME280;5911;51.036;6.972;2023-07-08T02:06:54;100763.50;;;22.68;61.95
11710;BME280;5911;51.036;6.972;2023-07-08T02:09:22;100759.34;;;22.66;60.85
11710;BME280;5911;51.036;6.972;2023-07-08T02:11:53;100758.97;;;22.69;61.21
11710;BME280;5911;51.036;6.972;2023-07-08T02:14:21;100754.38;;;22.63;61.49
11710;BME280;5911;51.036;6.972;2023-07-08T02:16:49;100740.91;;;22.56;61.60
11710;BME280;5911;51.036;6.972;2023-07-08T02:19:18;100749.00;;;22.63;61.53
11710;BME280;5911;51.036;6.972;2023-07-08T02:21:46;100757.06;;;22.63;62.75
11710;BME280;5911;51.036;6.972;2023-07-08T02:24:14;100756.03;;;22.64;62.42
11710;BME280;5911;51.036;6.972;2023-07-08T02:26:43;100747.13;;;22.63;62.85
11710;BME280;5911;51.036;6.972;2023-07-08T02:29:15;100741.97;;;22.62;62.98
11710;BME280;5911;51.036;6.972;2023-07-08T02:31:42;100740.94;;;22.63;63.18
11710;BME280;5911;51.036;6.972;2023-07-08T02:34:10;100738.66;;;22.60;63.63
11710;BME280;5911;51.036;6.972;2023-07-08T02:36:38;100737.00;;;22.59;63.62
11710;BME280;5911;51.036;6.972;2023-07-08T02:39:06;100739.06;;;22.57;64.39
11710;BME280;5911;51.036;6.972;2023-07-08T02:41:34;100729.72;;;22.53;64.50
11710;BME280;5911;51.036;6.972;2023-07-08T02:44:01;100735.69;;;22.48;65.04
11710;BME280;5911;51.036;6.972;2023-07-08T02:46:32;100736.94;;;22.45;65.05
11710;BME280;5911;51.036;6.972;2023-07-08T02:49:00;100737.72;;;22.39;64.56
11710;BME280;5911;51.036;6.972;2023-07-08T02:51:27;100739.34;;;22.34;64.07
11710;BME280;5911;51.036;6.972;2023-07-08T02:53:55;100744.09;;;22.32;64.38
11710;BME280;5911;51.036;6.972;2023-07-08T02:56:23;100745.53;;;22.28;63.81
11710;BME280;5911;51.036;6.972;2023-07-08T02:58:53;100746.72;;;22.19;63.77
11710;BME280;5911;51.036;6.972;2023-07-08T03:01:21;100748.81;;;22.23;64.01
11710;BME280;5911;51.036;6.972;2023-07-08T03:03:52;100753.31;;;22.16;63.19
11710;BME280;5911;51.036;6.972;2023-07-08T03:06:27;100740.91;;;22.15;63.16
11710;BME280;5911;51.036;6.972;2023-07-08T03:08:55;100738.75;;;22.04;63.15
11710;BME280;5911;51.036;6.972;2023-07-08T03:11:23;100743.31;;;22.03;63.62
11710;BME280;5911;51.036;6.972;2023-07-08T03:13:51;100750.28;;;21.98;64.00
11710;BME280;5911;51.036;6.972;2023-07-08T03:16:19;100732.88;;;21.94;63.81
11710;BME280;5911;51.036;6.972;2023-07-08T03:18:46;100739.28;;;21.93;63.52
11710;BME280;5911;51.036;6.972;2023-07-08T03:21:18;100750.41;;;21.90;64.40
11710;BME280;5911;51.036;6.972;2023-07-08T03:23:47;100746.50;;;21.92;63.54
11710;BME280;5911;51.036;6.972;2023-07-08T03:26:17;100758.28;;;21.91;64.83
11710;BME280;5911;51.036;6.972;2023-07-08T03:28:47;100749.78;;;21.88;65.91
11710;BME280;5911;51.036;6.972;2023-07-08T03:31:15;100762.56;;;21.86;65.40
11710;BME280;5911;51.036;6.972;2023-07-08T03:33:44;100761.72;;;21.85;66.36
11710;BME280;5911;51.036;6.972;2023-07-08T03:36:14;100759.28;;;21.84;66.32
11710;BME280;5911;51.036;6.972;2023-07-08T03:38:52;100764.66;;;21.84;66.20
11710;BME280;5911;51.036;6.972;2023-07-08T03:41:20;100760.91;;;21.85;66.39
11710;BME280;5911;51.036;6.972;2023-07-08T03:43:48;100762.56;;;21.86;66.69
11710;BME280;5911;51.036;6.972;2023-07-08T03:46:18;100760.72;;;21.86;67.42
11710;BME280;5911;51.036;6.972;2023-07-08T03:48:47;100747.25;;;21.80;68.71
11710;BME280;5911;51.036;6.972;2023-07-08T03:51:20;100767.56;;;21.89;70.13
11710;BME280;5911;51.036;6.972;2023-07-08T03:53:51;100760.31;;;21.89;70.38
11710;BME280;5911;51.036;6.972;2023-07-08T03:56:21;100759.09;;;21.92;71.27
11710;BME280;5911;51.036;6.972;2023-07-08T03:58:49;100766.41;;;21.98;72.27
11710;BME280;5911;51.036;6.972;2023-07-08T04:01:18;100765.97;;;21.94;71.36
11710;BME280;5911;51.036;6.972;2023-07-08T04:03:47;100763.72;;;21.98;72.13
11710;BME280;5911;51.036;6.972;2023-07-08T04:06:15;100765.38;;;21.99;73.20
11710;BME280;5911;51.036;6.972;2023-07-08T04:08:43;100768.25;;;21.97;73.71
11710;BME280;5911;51.036;6.972;2023-07-08T04:11:14;100772.59;;;21.98;73.52
11710;BME280;5911;51.036;6.972;2023-07-08T04:13:42;100768.84;;;21.93;73.86
11710;BME280;5911;51.036;6.972;2023-07-08T04:16:15;100774.31;;;21.99;75.93
11710;BME280;5911;51.036;6.972;2023-07-08T04:18:46;100770.56;;;22.00;75.33
11710;BME280;5911;51.036;6.972;2023-07-08T04:21:17;100769.34;;;22.03;75.67
11710;BME280;5911;51.036;6.972;2023-07-08T04:23:49;100766.66;;;22.03;74.80
11710;BME280;5911;51.036;6.972;2023-07-08T04:26:18;100766.00;;;22.01;74.73
11710;BME280;5911;51.036;6.972;2023-07-08T04:28:46;100772.22;;;22.01;76.46
11710;BME280;5911;51.036;6.972;2023-07-08T04:31:14;100768.06;;;21.99;76.48
11710;BME280;5911;51.036;6.972;2023-07-08T04:33:42;100776.56;;;22.02;77.09
11710;BME280;5911;51.036;6.972;2023-07-08T04:36:12;100775.09;;;22.00;77.48
11710;BME280;5911;51.036;6.972;2023-07-08T04:38:40;100769.47;;;21.95;78.17
11710;BME280;5911;51.036;6.972;2023-07-08T04:41:13;100776.25;;;21.91;76.77
11710;BME280;5911;51.036;6.972;2023-07-08T04:43:42;100776.63;;;21.88;74.77
11710;BME280;5911;51.036;6.972;2023-07-08T04:46:19;100783.66;;;21.89;75.20
11710;BME280;5911;51.036;6.972;2023-07-08T04:48:49;100779.50;;;21.86;75.84
11710;BME280;5911;51.036;6.972;2023-07-08T04:51:17;100781.53;;;21.77;73.70
11710;BME280;5911;51.036;6.972;2023-07-08T04:53:45;100780.69;;;21.77;74.04
11710;BME280;5911;51.036;6.972;2023-07-08T04:56:13;100781.53;;;21.77;74.74
11710;BME280;5911;51.036;6.972;2023-07-08T04:58:42;100775.31;;;21.77;74.93
11710;BME280;5911;51.036;6.972;2023-07-08T05:01:10;100777.81;;;21.79;73.73
11710;BME280;5911;51.036;6.972;2023-07-08T05:03:38;100789.31;;;21.72;74.23
11710;BME280;5911;51.036;6.972;2023-07-08T05:06:06;100788.94;;;21.75;75.33
11710;BME280;5911;51.036;6.972;2023-07-08T05:08:34;100786.91;;;21.77;76.19
11710;BME280;5911;51.036;6.972;2023-07-08T05:11:01;100785.88;;;21.79;75.78
11710;BME280;5911;51.036;6.972;2023-07-08T05:13:29;100783.63;;;21.82;76.98
11710;BME280;5911;51.036;6.972;2023-07-08T05:15:58;100784.06;;;21.86;75.78
11710;BME280;5911;51.036;6.972;2023-07-08T05:18:26;100788.22;;;21.88;77.10
11710;BME280;5911;51.036;6.972;2023-07-08T05:20:55;100762.84;;;21.69;77.63
11710;BME280;5911;51.036;6.972;2023-07-08T05:23:24;100786.34;;;21.89;77.04
11710;BME280;5911;51.036;6.972;2023-07-08T05:25:51;100790.31;;;21.93;78.25
11710;BME280;5911;51.036;6.972;2023-07-08T05:28:20;100783.72;;;21.95;78.29
11710;BME280;5911;51.036;6.972;2023-07-08T05:30:52;100777.97;;;21.98;77.14
11710;BME280;5911;51.036;6.972;2023-07-08T05:33:23;100785.84;;;22.00;77.81
11710;BME280;5911;51.036;6.972;2023-07-08T05:35:51;100781.75;;;22.04;77.03
11710;BME280;5911;51.036;6.972;2023-07-08T05:38:19;100784.31;;;22.12;74.70
11710;BME280;5911;51.036;6.972;2023-07-08T05:40:50;100775.84;;;22.15;75.50
11710;BME280;5911;51.036;6.972;2023-07-08T05:43:18;100775.63;;;22.17;75.77
11710;BME280;5911;51.036;6.972;2023-07-08T05:45:46;100782.88;;;22.16;75.30
11710;BME280;5911;51.036;6.972;2023-07-08T05:48:35;100780.19;;;22.16;76.06
11710;BME280;5911;51.036;6.972;2023-07-08T05:51:04;100790.34;;;22.21;72.07
11710;BME280;5911;51.036;6.972;2023-07-08T05:53:31;100787.47;;;22.22;72.45
11710;BME280;5911;51.036;6.972;2023-07-08T05:55:59;100792.91;;;22.35;69.87
11710;BME280;5911;51.036;6.972;2023-07-08T05:58:27;100786.97;;;22.40;72.17
11710;BME280;5911;51.036;6.972;2023-07-08T06:00:56;100792.78;;;22.43;73.44
11710;BME280;5911;51.036;6.972;2023-07-08T06:03:25;100795.69;;;22.49;71.55
11710;BME280;5911;51.036;6.972;2023-07-08T06:05:54;100798.41;;;22.55;71.21
11710;BME280;5911;51.036;6.972;2023-07-08T06:08:22;100750.28;;;22.32;68.66
11710;BME280;5911;51.036;6.972;2023-07-08T06:10:50;100789.13;;;22.64;68.73
11710;BME280;5911;51.036;6.972;2023-07-08T06:13:18;100785.03;;;22.68;70.91
11710;BME280;5911;51.036;6.972;2023-07-08T06:15:46;100794.16;;;22.74;69.47
11710;BME280;5911;51.036;6.972;2023-07-08T06:18:15;100795.44;;;22.78;68.47
11710;BME280;5911;51.036;6.972;2023-07-08T06:20:55;100786.34;;;22.79;70.19
11710;BME280;5911;51.036;6.972;2023-07-08T06:23:25;100774.72;;;22.72;69.40
11710;BME280;5911;51.036;6.972;2023-07-08T06:25:53;100795.25;;;22.79;69.50
11710;BME280;5911;51.036;6.972;2023-07-08T06:28:21;100790.50;;;22.82;68.26
11710;BME280;5911;51.036;6.972;2023-07-08T06:30:49;100789.19;;;22.71;69.65
11710;BME280;5911;51.036;6.972;2023-07-08T06:33:17;100761.22;;;22.59;64.98
11710;BME280;5911;51.036;6.972;2023-07-08T06:35:44;100795.88;;;22.82;65.12
11710;BME280;5911;51.036;6.972;2023-07-08T06:38:14;100796.72;;;22.82;67.95
11710;BME280;5911;51.036;6.972;2023-07-08T06:40:41;100799.78;;;22.79;68.06
11710;BME280;5911;51.036;6.972;2023-07-08T06:43:10;100802.72;;;22.84;67.34
11710;BME280;5911;51.036;6.972;2023-07-08T06:45:54;100800.19;;;22.76;67.49
11710;BME280;5911;51.036;6.972;2023-07-08T06:48:22;100800.03;;;22.84;64.91
11710;BME280;5911;51.036;6.972;2023-07-08T06:50:51;100792.19;;;22.89;64.10
11710;BME280;5911;51.036;6.972;2023-07-08T06:53:20;100798.41;;;22.96;63.65
11710;BME280;5911;51.036;6.972;2023-07-08T06:55:49;100789.31;;;22.97;65.16
11710;BME280;5911;51.036;6.972;2023-07-08T06:58:17;100780.84;;;23.07;61.30
11710;BME280;5911;51.036;6.972;2023-07-08T07:00:45;100797.03;;;23.13;61.20
11710;BME280;5911;51.036;6.972;2023-07-08T07:03:13;100804.06;;;23.14;63.02
11710;BME280;5911;51.036;6.972;2023-07-08T07:05:42;100800.97;;;23.18;59.05
11710;BME280;5911;51.036;6.972;2023-07-08T07:08:10;100805.53;;;23.24;60.12
11710;BME280;5911;51.036;6.972;2023-07-08T07:10:40;100806.38;;;23.31;60.29
11710;BME280;5911;51.036;6.972;2023-07-08T07:13:11;100801.00;;;23.31;60.72
11710;BME280;5911;51.036;6.972;2023-07-08T07:15:39;100794.78;;;23.30;57.79
11710;BME280;5911;51.036;6.972;2023-07-08T07:18:09;100809.09;;;23.44;56.63
11710;BME280;5911;51.036;6.972;2023-07-08T07:20:47;100810.59;;;23.53;55.27
11710;BME280;5911;51.036;6.972;2023-07-08T07:23:16;100814.75;;;23.56;55.53
11710;BME280;5911;51.036;6.972;2023-07-08T07:25:46;100818.91;;;23.58;55.40
11710;BME280;5911;51.036;6.972;2023-07-08T07:28:15;100805.22;;;23.53;56.41
11710;BME280;5911;51.036;6.972;2023-07-08T07:30:43;100812.50;;;23.66;54.97
11710;BME280;5911;51.036;6.972;2023-07-08T07:33:12;100811.44;;;23.73;54.09
11710;BME280;5911;51.036;6.972;2023-07-08T07:35:46;100813.75;;;23.76;53.52
11710;BME280;5911;51.036;6.972;2023-07-08T07:38:14;100811.88;;;23.77;53.94
11710;BME280;5911;51.036;6.972;2023-07-08T07:40:43;100809.81;;;23.79;53.40
11710;BME280;5911;51.036;6.972;2023-07-08T07:43:12;100811.88;;;23.83;54.08
11710;BME280;5911;51.036;6.972;2023-07-08T07:45:40;100797.56;;;23.76;54.89
11710;BME280;5911;51.036;6.972;2023-07-08T07:48:11;100814.34;;;23.85;54.96
11710;BME280;5911;51.036;6.972;2023-07-08T07:50:39;100819.75;;;23.92;53.19
11710;BME280;5911;51.036;6.972;2023-07-08T07:53:07;100824.75;;;23.95;52.92
11710;BME280;5911;51.036;6.972;2023-07-08T07:55:37;100819.78;;;23.98;52.51
11710;BME280;5911;51.036;6.972;2023-07-08T07:58:05;100831.78;;;24.02;52.28
11710;BME280;5911;51.036;6.972;2023-07-08T08:00:35;100827.63;;;24.06;52.80
11710;BME280;5911;51.036;6.972;2023-07-08T08:03:06;100823.88;;;24.14;52.00
11710;BME280;5911;51.036;6.972;2023-07-08T08:05:33;100828.44;;;24.20;51.14
11710;BME280;5911;51.036;6.972;2023-07-08T08:08:01;100812.47;;;24.18;50.11
11710;BME280;5911;51.036;6.972;2023-07-08T08:10:35;100831.56;;;24.30;50.87
11710;BME280;5911;51.036;6.972;2023-07-08T08:13:03;100833.03;;;24.39;51.52
11710;BME280;5911;51.036;6.972;2023-07-08T08:15:31;100827.84;;;24.38;50.27
11710;BME280;5911;51.036;6.972;2023-07-08T08:18:00;100827.00;;;24.37;51.17
11710;BME280;5911;51.036;6.972;2023-07-08T08:20:28;100814.75;;;24.35;51.72
11710;BME280;5911;51.036;6.972;2023-07-08T08:22:57;100822.03;;;24.34;51.73
11710;BME280;5911;51.036;6.972;2023-07-08T08:25:25;100829.06;;;24.35;51.33
11710;BME280;5911;51.036;6.972;2023-07-08T08:27:53;100831.78;;;24.35;51.02
11710;BME280;5911;51.036;6.972;2023-07-08T08:30:21;100823.69;;;24.35;51.31
11710;BME280;5911;51.036;6.972;2023-07-08T08:32:55;100830.94;;;24.41;51.32
11710;BME280;5911;51.036;6.972;2023-07-08T08:35:26;100825.13;;;24.38;51.19
11710;BME280;5911;51.036;6.972;2023-07-08T08:37:54;100814.75;;;24.41;50.67
11710;BME280;5911;51.036;6.972;2023-07-08T08:40:21;100815.16;;;24.45;50.83
11710;BME280;5911;51.036;6.972;2023-07-08T08:42:57;100819.28;;;24.47;51.21
11710;BME280;5911;51.036;6.972;2023-07-08T08:45:28;100801.91;;;24.43;49.29
11710;BME280;5911;51.036;6.972;2023-07-08T08:48:03;100790.66;;;24.46;50.14
11710;BME280;5911;51.036;6.972;2023-07-08T08:50:36;100822.34;;;24.71;48.96
11710;BME280;5911;51.036;6.972;2023-07-08T08:53:12;100827.91;;;24.89;48.78
11710;BME280;5911;51.036;6.972;2023-07-08T08:55:40;100822.94;;;24.86;48.72
11710;BME280;5911;51.036;6.972;2023-07-08T08:58:16;100821.44;;;24.97;47.04
11710;BME280;5911;51.036;6.972;2023-07-08T09:00:55;100822.69;;;25.01;47.47
11710;BME280;5911;51.036;6.972;2023-07-08T09:03:41;100826.78;;;25.10;46.95
11710;BME280;5911;51.036;6.972;2023-07-08T09:06:14;100828.66;;;25.09;47.48
11710;BME280;5911;51.036;6.972;2023-07-08T09:08:42;100833.22;;;25.15;47.18
11710;BME280;5911;51.036;6.972;2023-07-08T09:11:21;100821.81;;;25.07;48.61
11710;BME280;5911;51.036;6.972;2023-07-08T09:13:51;100835.28;;;25.20;47.75
11710;BME280;5911;51.036;6.972;2023-07-08T09:16:26;100822.53;;;25.27;46.91
11710;BME280;5911;51.036;6.972;2023-07-08T09:18:59;100826.72;;;25.23;47.01
11710;BME280;5911;51.036;6.972;2023-07-08T09:21:33;100800.19;;;25.13;47.18
11710;BME280;5911;51.036;6.972;2023-07-08T09:24:09;100826.88;;;25.35;47.61
11710;BME280;5911;51.036;6.972;2023-07-08T09:26:41;100830.16;;;25.37;47.80
11710;BME280;5911;51.036;6.972;2023-07-08T09:29:09;100833.06;;;25.42;47.94
11710;BME280;5911;51.036;6.972;2023-07-08T09:31:39;100832.00;;;25.43;48.14
11710;BME280;5911;51.036;6.972;2023-07-08T09:34:11;100830.97;;;25.44;47.07
11710;BME280;5911;51.036;6.972;2023-07-08T09:36:43;100821.41;;;25.48;47.24
11710;BME280;5911;51.036;6.972;2023-07-08T09:39:13;100815.56;;;25.51;47.49
11710;BME280;5911;51.036;6.972;2023-07-08T09:41:42;100825.47;;;25.57;47.56
11710;BME280;5911;51.036;6.972;2023-07-08T09:44:18;100809.63;;;25.67;46.72
11710;BME280;5911;51.036;6.972;2023-07-08T09:46:49;100800.53;;;25.62;47.42
11710;BME280;5911;51.036;6.972;2023-07-08T09:49:19;100818.97;;;25.71;47.29
11710;BME280;5911;51.036;6.972;2023-07-08T09:51:51;100786.81;;;25.63;47.43
11710;BME280;5911;51.036;6.972;2023-07-08T09:54:22;100793.41;;;25.67;47.13
11710;BME280;5911;51.036;6.972;2023-07-08T09:56:57;100808.59;;;25.93;47.61
11710;BME280;5911;51.036;6.972;2023-07-08T09:59:29;100800.28;;;25.95;47.23
11710;BME280;5911;51.036;6.972;2023-07-08T10:02:00;100805.47;;;25.96;46.95
11710;BME280;5911;51.036;6.972;2023-07-08T10:04:29;100799.81;;;25.98;47.04
11710;BME280;5911;51.036;6.972;2023-07-08T10:06:59;100813.53;;;26.21;46.78
11710;BME280;5911;51.036;6.972;2023-07-08T10:09:27;100805.53;;;26.33;46.38
11710;BME280;5911;51.036;6.972;2023-07-08T10:11:58;100799.31;;;26.32;46.11
11710;BME280;5911;51.036;6.972;2023-07-08T10:14:32;100798.56;;;26.43;46.93
11710;BME280;5911;51.036;6.972;2023-07-08T10:17:02;100795.78;;;26.50;47.17
11710;BME280;5911;51.036;6.972;2023-07-08T10:19:30;100791.81;;;26.52;46.69
11710;BME280;5911;51.036;6.972;2023-07-08T10:22:13;100797.66;;;26.49;47.68
11710;BME280;5911;51.036;6.972;2023-07-08T10:24:55;100792.41;;;26.54;45.36
11710;BME280;5911;51.036;6.972;2023-07-08T10:27:31;100785.97;;;26.55;47.05
11710;BME280;5911;51.036;6.972;2023-07-08T10:30:14;100781.66;;;26.66;48.42
11710;BME280;5911;51.036;6.972;2023-07-08T10:32:52;100766.97;;;26.74;46.36
11710;BME280;5911;51.036;6.972;2023-07-08T10:35:27;100786.34;;;26.89;46.65
11710;BME280;5911;51.036;6.972;2023-07-08T10:38:13;100779.44;;;26.93;45.12
11710;BME280;5911;51.036;6.972;2023-07-08T10:40:48;100768.59;;;27.11;45.96
11710;BME280;5911;51.036;6.972;2023-07-08T10:46:19;100775.56;;;27.49;43.98
11710;BME280;5911;51.036;6.972;2023-07-08T10:49:00;100780.19;;;27.72;43.54
11710;BME280;5911;51.036;6.972;2023-07-08T10:51:38;100780.03;;;28.20;42.11
11710;BME280;5911;51.036;6.972;2023-07-08T10:54:34;100797.75;;;28.62;40.92
11710;BME280;5911;51.036;6.972;2023-07-08T10:57:15;100786.84;;;28.97;41.32
11710;BME280;5911;51.036;6.972;2023-07-08T10:59:53;100785.72;;;29.38;41.49
11710;BME280;5911;51.036;6.972;2023-07-08T11:02:59;100781.22;;;29.61;41.27
11710;BME280;5911;51.036;6.972;2023-07-08T11:05:34;100767.94;;;29.98;42.34
11710;BME280;5911;51.036;6.972;2023-07-08T11:08:10;100785.13;;;30.37;38.99
11710;BME280;5911;51.036;6.972;2023-07-08T11:10:48;100773.16;;;30.38;39.62
11710;BME280;5911;51.036;6.972;2023-07-08T11:13:40;100778.38;;;30.61;39.91
11710;BME280;5911;51.036;6.972;2023-07-08T11:16:15;100784.75;;;30.94;40.15
11710;BME280;5911;51.036;6.972;2023-07-08T11:18:51;100782.09;;;30.99;38.42
11710;BME280;5911;51.036;6.972;2023-07-08T11:21:23;100787.06;;;31.07;39.23
11710;BME280;5911;51.036;6.972;2023-07-08T11:23:57;100767.44;;;31.05;36.99
11710;BME280;5911;51.036;6.972;2023-07-08T11:26:32;100784.50;;;31.49;38.43
11710;BME280;5911;51.036;6.972;2023-07-08T11:29:02;100775.25;;;31.50;37.63
11710;BME280;5911;51.036;6.972;2023-07-08T11:31:33;100779.28;;;31.69;37.32
11710;BME280;5911;51.036;6.972;2023-07-08T11:34:02;100781.06;;;31.91;36.63
11710;BME280;5911;51.036;6.972;2023-07-08T11:36:32;100768.22;;;31.86;36.00
11710;BME280;5911;51.036;6.972;2023-07-08T11:39:00;100784.88;;;32.27;37.00
11710;BME280;5911;51.036;6.972;2023-07-08T11:41:31;100784.13;;;32.36;34.15
11710;BME280;5911;51.036;6.972;2023-07-08T11:44:03;100782.78;;;32.44;34.18
11710;BME280;5911;51.036;6.972;2023-07-08T11:46:33;100789.38;;;32.58;33.76
11710;BME280;5911;51.036;6.972;2023-07-08T11:49:04;100778.72;;;32.57;35.73
11710;BME280;5911;51.036;6.972;2023-07-08T11:51:34;100785.09;;;32.72;33.21
11710;BME280;5911;51.036;6.972;2023-07-08T11:54:11;100778.03;;;32.87;33.37
11710;BME280;5911;51.036;6.972;2023-07-08T11:56:59;100772.03;;;32.79;34.23
11710;BME280;5911;51.036;6.972;2023-07-08T11:59:30;100773.44;;;32.97;34.15
11710;BME280;5911;51.036;6.972;2023-07-08T12:02:04;100778.03;;;32.87;33.96
11710;BME280;5911;51.036;6.972;2023-07-08T12:04:55;100779.81;;;33.28;35.45
11710;BME280;5911;51.036;6.972;2023-07-08T12:07:30;100779.56;;;33.50;32.87
11710;BME280;5911;51.036;6.972;2023-07-08T12:10:04;100778.13;;;33.22;32.28
11710;BME280;5911;51.036;6.972;2023-07-08T12:12:35;100779.28;;;33.36;32.66
11710;BME280;5911;51.036;6.972;2023-07-08T12:15:12;100775.47;;;33.42;31.66
11710;BME280;5911;51.036;6.972;2023-07-08T12:17:42;100778.75;;;33.54;31.57
11710;BME280;5911;51.036;6.972;2023-07-08T12:20:18;100785.03;;;33.80;30.89
11710;BME280;5911;51.036;6.972;2023-07-08T12:22:48;100778.72;;;33.95;30.33
11710;BME280;5911;51.036;6.972;2023-07-08T12:25:18;100772.69;;;33.93;31.48
11710;BME280;5911;51.036;6.972;2023-07-08T12:27:49;100771.88;;;33.93;31.59
11710;BME280;5911;51.036;6.972;2023-07-08T12:30:17;100766.66;;;34.11;33.13
11710;BME280;5911;51.036;6.972;2023-07-08T12:32:45;100774.88;;;34.11;31.72
11710;BME280;5911;51.036;6.972;2023-07-08T12:35:22;100769.38;;;34.11;31.08
11710;BME280;5911;51.036;6.972;2023-07-08T12:37:58;100770.47;;;34.31;30.05
11710;BME280;5911;51.036;6.972;2023-07-08T12:40:29;100766.63;;;34.37;31.17
11710;BME280;5911;51.036;6.972;2023-07-08T12:42:58;100758.38;;;34.27;30.41
11710;BME280;5911;51.036;6.972;2023-07-08T12:45:35;100762.47;;;34.39;31.91
11710;BME280;5911;51.036;6.972;2023-07-08T12:48:08;100768.75;;;34.50;29.28
11710;BME280;5911;51.036;6.972;2023-07-08T12:50:36;100770.34;;;34.61;31.23
11710;BME280;5911;51.036;6.972;2023-07-08T12:53:05;100768.09;;;34.68;31.15
11710;BME280;5911;51.036;6.972;2023-07-08T12:55:37;100767.53;;;34.76;30.59
11710;BME280;5911;51.036;6.972;2023-07-08T12:58:09;100763.59;;;34.98;29.78
11710;BME280;5911;51.036;6.972;2023-07-08T13:00:40;100757.00;;;34.99;29.58
11710;BME280;5911;51.036;6.972;2023-07-08T13:03:14;100763.84;;;35.01;29.54
11710;BME280;5911;51.036;6.972;2023-07-08T13:05:43;100763.00;;;35.06;29.82
11710;BME280;5911;51.036;6.972;2023-07-08T13:08:12;100758.59;;;35.05;28.05
11710;BME280;5911;51.036;6.972;2023-07-08T13:10:41;100767.09;;;35.08;29.08
11710;BME280;5911;51.036;6.972;2023-07-08T13:13:14;100753.63;;;35.12;28.70
11710;BME280;5911;51.036;6.972;2023-07-08T13:15:46;100766.19;;;35.28;28.59
11710;BME280;5911;51.036;6.972;2023-07-08T13:18:15;100769.94;;;35.37;27.53
11710;BME280;5911;51.036;6.972;2023-07-08T13:20:47;100756.72;;;35.44;28.00
11710;BME280;5911;51.036;6.972;2023-07-08T13:23:16;100766.69;;;35.64;29.29